Flight Track Log - Related Links

Times and Time Zones

All times are in EDT time to prevent confusion due to time zone crossing. See the EGF3994 flight status page for this flight to view local times or setup timezone preferences in your user account.

Time Position Orientation Groundspeed Altitude Reporting Facility
EDT Latitude Longitude Course Direction KTS MPH feet Rate Location/Type
Fri 07:47:03 PM 41.9333 -87.8833 90° East 184 212 2,200  Level Chicago TRACON
Fri 07:47:57 PM 41.9167 -87.8167 109° East 224 258 4,100 1,400 Climbing Chicago TRACON
Fri 07:49:00 PM 41.9614 -87.4805 98° East  Level FlightAware Approximate
Fri 07:49:03 PM 41.8833 -87.7167 114° Southeast 274 315 5,000  Level Chicago TRACON
Fri 07:49:59 PM 41.9125 -87.6408 63° Northeast 275 316 5,100 1,525 Climbing Chicago Center
Fri 07:50:00 PM 41.9482 -87.3416 95° East  Level FlightAware Approximate
Fri 07:51:00 PM 41.9383 -87.2023 95° East  Level FlightAware Approximate
Fri 07:51:01 PM 41.9644 -87.5236 59° Northeast 303 349 8,000  Level Chicago Center
Fri 07:52:00 PM 41.9333 -87.0802 90° East  Level FlightAware Approximate
Fri 07:52:02 PM 41.9594 -87.4058 93° East 309 356 10,300  Level Chicago Center
Fri 07:53:04 PM 41.9553 -87.2889 93° East 313 360 12,100 1,548 Climbing Chicago Center
Fri 07:54:06 PM 41.9503 -87.1594 93° East 336 387 13,500 1,403 Climbing Chicago Center
Fri 07:55:08 PM 41.9564 -87.0186 87° East 370 426 15,000 1,220 Climbing Chicago Center
Fri 07:56:09 PM 41.9497 -86.8733 93° East 397 457 16,000 1,024 Climbing Chicago Center
Fri 07:57:11 PM 41.9222 -86.7031 102° East 391 450 17,100 1,306 Climbing Chicago Center
Fri 07:58:13 PM 41.9006 -86.5556 101° East 395 455 18,700 968 Climbing Chicago Center
Fri 07:59:15 PM 41.8800 -86.4106 101° East 398 458 19,100 829 Climbing Chicago Center
Fri 08:00:16 PM 41.8589 -86.2603 101° East 410 472 20,400 927 Climbing Chicago Center
Fri 08:01:18 PM 41.8364 -86.1081 101° East 415 478 21,000 581 Climbing Chicago Center
Fri 08:02:20 PM 41.8122 -85.9472 101° East 436 502 21,600 823 Climbing Chicago Center
Fri 08:03:22 PM 41.7886 -85.7858 101° East 440 506 22,700 683 Climbing Chicago Center
Fri 08:04:23 PM 41.7167 -85.6669 129° Southeast 429 494 23,000 146 Climbing Chicago Center
Fri 08:05:25 PM 41.5919 -85.5831 153° Southeast 428 493 23,000 -69 Level Chicago Center
Fri 08:07:16 PM 41.3925 -85.4475 153° Southeast 444 511 22,800 -416 Descending Indianapolis Center
Fri 08:08:18 PM 41.3033 -85.3300 135° Southeast 453 521 21,800 -1,073 Descending Indianapolis Center
Fri 08:09:19 PM 41.2136 -85.2117 135° Southeast 451 519 20,600 -1,475 Descending Indianapolis Center
Fri 08:10:20 PM 41.1267 -85.0981 135° Southeast 440 506 18,800 -1,756 Descending Indianapolis Center
Fri 08:11:22 PM 41.0431 -84.9917 136° Southeast 422 486 17,000 -1,610 Descending Indianapolis Center
Fri 08:12:23 PM 40.9597 -84.8856 136° Southeast 412 474 15,500 -1,024 Descending Indianapolis Center
Fri 08:13:25 PM 40.8639 -84.7625 136° Southeast 409 471 14,900 -293 Descending Indianapolis Center
Fri 08:14:26 PM 40.7792 -84.6564 137° Southeast 414 476 14,900  Level Indianapolis Center
Fri 08:14:41 PM 40.7703 -84.6453 137° Southeast 414 476 14,900 -290 Level Chicago Center
Fri 08:15:28 PM 40.6936 -84.5500 137° Southeast 419 482 14,600 -656 Descending Indianapolis Center
Fri 08:15:45 PM 40.6669 -84.5158 136° Southeast 417 480 14,200 -1,869 Descending Indianapolis Center
Fri 08:16:29 PM 40.6114 -84.4456 136° Southeast 411 473 12,700 -1,967 Descending Indianapolis Center
Fri 08:16:46 PM 40.5850 -84.4139 138° Southeast 406 467 12,200 -1,742 Descending Indianapolis Center
Fri 08:17:31 PM 40.5278 -84.3533 141° Southeast 392 451 10,900 -1,400 Descending Indianapolis Center
Fri 08:17:46 PM 40.5019 -84.3256 141° Southeast 381 438 10,800 -787 Descending Indianapolis Center
Fri 08:18:32 PM 40.4442 -84.2631 141° Southeast 386 444 10,100 -689 Descending Indianapolis Center
Fri 08:18:47 PM 40.4189 -84.2375 142° Southeast 383 441 10,100 -194 Level Indianapolis Center
Fri 08:19:34 PM 40.3650 -84.1753 139° Southeast 373 429 9,900 -889 Descending Indianapolis Center
Fri 08:20:35 PM 40.2978 -84.1150 146° Southeast 306 352 8,500 -1,623 Descending Indianapolis Center
Fri 08:21:36 PM 40.2247 -84.0753 157° South 285 328 6,600 -1,926 Descending Indianapolis Center
Fri 08:21:56 PM 40.1917 -84.0594 160° South 280 322 5,900 -1,548 Descending Indianapolis Center
Fri 08:22:38 PM 40.1519 -84.0389 158° South 280 322 5,000 -1,282 Descending Indianapolis Center
Fri 08:23:39 PM 40.0858 -84.0033 158° South 268 308 3,700 -1,143 Descending Indianapolis Center
Fri 08:24:02 PM 40.0539 -83.9978 172° South 225 259 3,400 -581 Descending Indianapolis Center
Fri 08:24:41 PM 40.0172 -84.0161 201° Southwest 237 273 3,100 -295 Descending Indianapolis Center
Fri 08:25:03 PM 40.0069 -84.0353 235° Southwest 192 221 3,100 -98 Level Indianapolis Center
Fri 08:25:42 PM 39.9872 -84.0711 234° Southwest 203 234 3,000  Descending Indianapolis Center
Fri 08:26:03 PM 39.9753 -84.0939 236° Southwest 181 208 3,100 286 Climbing Indianapolis Center

Login

Don't have an account? Register now (free) for customized features, flight alerts, and more!